Time;durP1;ratioP1;P1;durP2;ratioP2;P2;SDS_P1;SDS_P2;PMS_P1;PMS_P2;Temp;Humidity;BMP_temperature;BMP_pressure;BME280_temperature;BME280_humidity;BME280_pressure;Samples;Min_cycle;Max_cycle;Signal;HPM_P1;HPM_P2
2022/01/27 00:00:02;;;;;;;;;;;;;;;14.06;54.46;102243.59;1021941;29;758;-60
2022/01/27 00:00:38;;;;;;;;;;;;;;;14.06;54.54;102238.22;1020555;29;820;-60
2022/01/27 00:01:34;;;;;;;;;;;;;;;14.05;54.18;102241.84;1020215;29;1880;-60
2022/01/27 00:03:45;;;;;;;;;;;;;;;14.05;54.95;102236.50;1017560;29;910;-60
2022/01/27 00:04:50;;;;;;;;;;;;;;;14.05;54.90;102236.50;1017167;29;671;-60
2022/01/27 00:05:46;;;;;;;;;;;;;;;14.04;55.12;102224.03;1016848;29;855;-61
2022/01/27 00:06:38;;;;;;;;;;;;;;;14.03;55.25;102227.69;1017224;29;698;-60
2022/01/27 00:07:29;;;;;;;;;;;;;;;14.03;54.47;102219.63;1017009;29;702;-60
2022/01/27 00:08:58;;;;;;;;;;;;;;;14.04;54.31;102210.63;1017006;29;646;-60
2022/01/27 00:11:23;;;;;;;;;;;;;;;14.04;55.20;102218.69;1020592;29;1853;-60
2022/01/27 00:12:18;;;;;;;;;;;;;;;14.05;55.08;102214.19;1020771;29;1968;-60
2022/01/27 00:13:13;;;;;;;;;;;;;;;14.04;54.66;102207.97;1019976;29;1279;-60
2022/01/27 00:14:04;;;;;;;;;;;;;;;14.03;54.77;102211.59;1020493;29;848;-61
2022/01/27 00:15:07;;;;;;;;;;;;;;;14.03;55.31;102222.31;1020070;29;693;-61
2022/01/27 00:16:19;;;;;;;;;;;;;;;14.04;54.59;102224.03;1020445;29;814;-60
2022/01/27 00:17:13;;;;;;;;;;;;;;;14.02;55.00;102223.25;1020201;29;1962;-60
2022/01/27 00:18:09;;;;;;;;;;;;;;;14.02;54.46;102219.72;1020342;29;748;-60
2022/01/27 00:18:59;;;;;;;;;;;;;;;14.02;55.28;102231.31;1020328;29;719;-61
2022/01/27 00:19:49;;;;;;;;;;;;;;;14.01;55.05;102229.56;1020919;29;726;-60
2022/01/27 00:20:40;;;;;;;;;;;;;;;14.01;54.92;102232.25;1020985;29;852;-60
2022/01/27 00:21:31;;;;;;;;;;;;;;;14.01;54.34;102232.25;1021374;29;1527;-61
2022/01/27 00:22:21;;;;;;;;;;;;;;;14.01;54.39;102236.75;1022045;29;948;-61
2022/01/27 00:23:12;;;;;;;;;;;;;;;14.01;54.61;102229.56;1021505;29;769;-62
2022/01/27 00:24:02;;;;;;;;;;;;;;;14.03;54.71;102221.44;1021400;29;718;-61
2022/01/27 00:24:53;;;;;;;;;;;;;;;14.01;54.76;102234.94;1021479;29;795;-60
2022/01/27 00:25:43;;;;;;;;;;;;;;;14.01;55.22;102236.75;1021393;29;717;-60
2022/01/27 00:26:33;;;;;;;;;;;;;;;14.01;54.77;102221.53;1021534;29;743;-61
2022/01/27 00:27:24;;;;;;;;;;;;;;;14.00;55.02;102216.25;1021556;29;650;-60
2022/01/27 00:28:14;;;;;;;;;;;;;;;13.97;55.09;102214.66;1021211;29;829;-60
2022/01/27 00:29:05;;;;;;;;;;;;;;;13.96;54.95;102215.59;1021515;29;790;-60
2022/01/27 00:29:55;;;;;;;;;;;;;;;13.96;54.14;102220.97;1018622;29;709;-60
2022/01/27 00:30:46;;;;;;;;;;;;;;;13.94;54.64;102206.78;1017009;29;962;-60
2022/01/27 00:31:36;;;;;;;;;;;;;;;13.94;55.26;102212.13;1017295;29;1205;-60
2022/01/27 00:32:27;;;;;;;;;;;;;;;13.95;55.09;102215.69;1016849;29;978;-60
2022/01/27 00:33:17;;;;;;;;;;;;;;;13.93;54.90;102202.38;1017059;29;725;-61
2022/01/27 00:34:07;;;;;;;;;;;;;;;13.94;55.07;102198.75;1017069;29;732;-61
2022/01/27 00:34:58;;;;;;;;;;;;;;;13.95;55.14;102192.44;1017000;29;788;-61
2022/01/27 00:35:48;;;;;;;;;;;;;;;13.96;54.30;102194.16;1017129;29;743;-61
2022/01/27 00:36:39;;;;;;;;;;;;;;;13.96;54.23;102199.50;1017021;29;789;-61
2022/01/27 00:37:29;;;;;;;;;;;;;;;13.97;54.38;102203.94;1017107;29;793;-60
2022/01/27 00:38:19;;;;;;;;;;;;;;;13.96;55.32;102206.69;1016891;29;670;-60
2022/01/27 00:39:10;;;;;;;;;;;;;;;13.96;54.31;102209.38;1016838;29;1781;-60
2022/01/27 00:40:00;;;;;;;;;;;;;;;13.97;54.59;102200.38;1022159;28;754;-60
2022/01/27 00:40:51;;;;;;;;;;;;;;;13.98;54.50;102202.06;1022017;29;673;-60
2022/01/27 00:41:41;;;;;;;;;;;;;;;13.97;55.07;102203.94;1021851;29;718;-60
2022/01/27 00:42:32;;;;;;;;;;;;;;;13.96;54.21;102204.88;1022039;29;731;-60
2022/01/27 00:43:22;;;;;;;;;;;;;;;13.95;54.87;102203.16;1020457;29;2078;-61
2022/01/27 00:44:14;;;;;;;;;;;;;;;13.95;54.17;102213.88;1020861;29;688;-61
2022/01/27 00:45:05;;;;;;;;;;;;;;;13.95;54.90;102205.81;1020271;29;722;-61
2022/01/27 00:45:55;;;;;;;;;;;;;;;13.94;54.96;102206.78;1021869;29;761;-60
2022/01/27 00:46:46;;;;;;;;;;;;;;;13.93;54.86;102202.38;1020954;29;774;-60
2022/01/27 00:47:36;;;;;;;;;;;;;;;13.93;54.81;102204.19;1021917;29;932;-60
2022/01/27 00:48:27;;;;;;;;;;;;;;;13.91;55.38;102198.91;1020919;29;704;-60
2022/01/27 00:49:17;;;;;;;;;;;;;;;13.92;54.28;102197.94;1021403;29;2041;-60
2022/01/27 00:50:08;;;;;;;;;;;;;;;13.93;54.38;102194.31;1022084;29;729;-60
2022/01/27 00:51:01;;;;;;;;;;;;;;;13.93;54.93;102205.03;1021978;29;758;-61
2022/01/27 00:51:52;;;;;;;;;;;;;;;13.94;54.75;102201.41;1021465;29;873;-61
2022/01/27 00:52:47;;;;;;;;;;;;;;;13.94;54.30;102206.78;1022046;29;812;-59
2022/01/27 00:53:58;;;;;;;;;;;;;;;13.92;54.39;102211.34;1021961;29;848;-60
2022/01/27 00:54:50;;;;;;;;;;;;;;;13.93;54.26;102206.84;1021234;29;791;-60
2022/01/27 00:55:41;;;;;;;;;;;;;;;13.93;55.05;102207.72;1021370;29;749;-60
2022/01/27 00:56:43;;;;;;;;;;;;;;;13.92;54.34;102199.78;1021580;29;637;-59
2022/01/27 00:59:59;;;;;;;;;;;;;;;13.92;55.23;102202.44;1021715;29;1814;-59
2022/01/27 01:00:56;;;;;;;;;;;;;;;13.89;54.96;102184.72;1021460;29;759;-59
2022/01/27 01:01:56;;;;;;;;;;;;;;;13.89;55.32;102198.13;1021458;29;744;-59
2022/01/27 01:02:54;;;;;;;;;;;;;;;13.87;55.15;102194.66;1021479;29;699;-59
2022/01/27 01:03:48;;;;;;;;;;;;;;;13.85;55.02;102181.34;1020310;29;749;-59
2022/01/27 01:04:42;;;;;;;;;;;;;;;13.86;54.38;102184.91;1020458;29;658;-59
2022/01/27 01:05:58;;;;;;;;;;;;;;;13.86;55.19;102177.72;1020284;29;733;-60
2022/01/27 01:06:50;;;;;;;;;;;;;;;13.87;54.47;102183.94;1020229;29;712;-60
2022/01/27 01:07:43;;;;;;;;;;;;;;;13.87;54.61;102183.94;1020304;29;778;-59
2022/01/27 01:14:37;;;;;;;;;;;;;;;13.86;54.41;102176.84;1021591;29;1081;-60
2022/01/27 01:15:32;;;;;;;;;;;;;;;13.85;55.15;102175.13;1020327;29;726;-60
2022/01/27 01:16:45;;;;;;;;;;;;;;;13.84;54.63;102163.53;1020250;29;858;-59
2022/01/27 01:17:48;;;;;;;;;;;;;;;13.84;54.61;102166.22;1020293;29;719;-60
2022/01/27 01:19:45;;;;;;;;;;;;;;;13.83;54.48;102155.59;1021794;29;1805;-59
2022/01/27 01:31:47;;;;;;;;;;;;;;;13.77;55.21;102126.50;1018673;29;990;-60
2022/01/27 01:32:46;;;;;;;;;;;;;;;13.77;54.87;102121.13;1018726;29;682;-59
2022/01/27 01:33:39;;;;;;;;;;;;;;;13.77;54.24;102115.78;1018763;29;919;-60
2022/01/27 01:34:31;;;;;;;;;;;;;;;13.79;55.27;102116.56;1018655;29;724;-60
2022/01/27 01:35:29;;;;;;;;;;;;;;;13.80;54.77;102120.94;1018705;29;929;-59
2022/01/27 01:36:34;;;;;;;;;;;;;;;13.79;55.29;102119.22;1018586;29;782;-60
2022/01/27 01:37:25;;;;;;;;;;;;;;;13.82;55.12;102119.03;1018650;29;1288;-60
2022/01/27 01:38:17;;;;;;;;;;;;;;;13.81;55.02;102119.97;1022475;29;1791;-60
2022/01/27 01:39:07;;;;;;;;;;;;;;;13.80;54.70;102113.75;1022359;29;823;-60
2022/01/27 01:39:58;;;;;;;;;;;;;;;13.79;54.49;102105.84;1022509;29;793;-60
2022/01/27 01:40:48;;;;;;;;;;;;;;;13.79;55.11;102116.56;1022635;29;759;-60
2022/01/27 01:41:38;;;;;;;;;;;;;;;13.79;55.24;102114.72;1022673;29;962;-60
2022/01/27 01:42:31;;;;;;;;;;;;;;;13.78;55.09;102120.19;1022593;29;717;-60
2022/01/27 01:43:21;;;;;;;;;;;;;;;13.78;55.24;102122.88;1021879;29;706;-59
2022/01/27 01:44:12;;;;;;;;;;;;;;;13.78;55.27;102126.41;1022536;29;658;-60
2022/01/27 01:45:02;;;;;;;;;;;;;;;13.77;55.02;102134.53;1022483;29;735;-60
2022/01/27 01:45:53;;;;;;;;;;;;;;;13.76;54.60;102135.47;1022006;29;801;-60
2022/01/27 01:46:43;;;;;;;;;;;;;;;13.77;54.70;102134.53;1022683;29;750;-60
2022/01/27 01:47:33;;;;;;;;;;;;;;;13.75;54.77;102125.72;1022520;29;606;-60
2022/01/27 01:48:24;;;;;;;;;;;;;;;13.74;54.73;102121.31;1018792;29;770;-60
2022/01/27 01:49:22;;;;;;;;;;;;;;;13.74;54.68;102124.00;1018649;29;706;-64
2022/01/27 01:50:13;;;;;;;;;;;;;;;13.74;55.13;102114.13;1014425;29;693;-64
2022/01/27 01:51:03;;;;;;;;;;;;;;;13.73;55.38;102107.06;1014019;29;705;-64
2022/01/27 01:51:54;;;;;;;;;;;;;;;13.72;54.71;102110.69;1012830;29;627;-63
2022/01/27 06:46:24;;;;;;;;;;;;;;;14.02;58.40;101844.50;1037723;23;1906;-57
2022/01/27 06:46:54;;;;;;;;;;;;;;;14.02;57.85;101840.00;1030294;23;1946;-59
2022/01/27 06:47:45;;;;;;;;;;;;;;;14.00;58.05;101852.63;1020089;29;1875;-61
2022/01/27 06:48:35;;;;;;;;;;;;;;;14.00;57.52;101847.25;1021104;29;1986;-61
2022/01/27 06:49:26;;;;;;;;;;;;;;;13.99;57.78;101850.03;1019593;28;688;-60
2022/01/27 06:50:16;;;;;;;;;;;;;;;13.96;57.96;101840.41;1019075;28;861;-58
2022/01/27 06:51:06;;;;;;;;;;;;;;;13.95;58.30;101854.75;1023267;28;987;-61
2022/01/27 06:51:57;;;;;;;;;;;;;;;13.98;58.20;101849.19;1022846;28;1096;-59
2022/01/27 06:52:47;;;;;;;;;;;;;;;13.96;57.99;101840.41;1021224;29;712;-58
2022/01/27 06:53:38;;;;;;;;;;;;;;;13.98;58.29;101848.31;1017432;29;703;-60
2022/01/27 06:54:28;;;;;;;;;;;;;;;13.96;58.29;101853.81;1020387;29;836;-59
2022/01/27 06:55:21;;;;;;;;;;;;;;;13.93;57.54;101848.63;1022799;29;1680;-59
2022/01/27 06:56:11;;;;;;;;;;;;;;;13.94;58.13;101858.41;1023085;28;668;-59
2022/01/27 06:57:02;;;;;;;;;;;;;;;13.93;58.03;101856.66;1022946;28;771;-59
2022/01/27 06:57:52;;;;;;;;;;;;;;;13.92;57.81;101848.72;1022187;28;1889;-60
2022/01/27 06:58:43;;;;;;;;;;;;;;;13.93;58.00;101864.72;1022849;28;867;-59
2022/01/27 06:59:34;;;;;;;;;;;;;;;13.94;57.28;101858.41;1023055;28;731;-59
2022/01/27 07:00:25;;;;;;;;;;;;;;;13.93;57.54;101851.31;1022324;28;863;-58
2022/01/27 07:01:15;;;;;;;;;;;;;;;13.91;57.49;101861.25;1022833;28;1451;-60
2022/01/27 07:02:06;;;;;;;;;;;;;;;13.93;57.34;101850.44;1022841;28;953;-59
2022/01/27 07:02:56;;;;;;;;;;;;;;;13.94;57.42;101861.06;1021102;29;862;-58
2022/01/27 07:03:47;;;;;;;;;;;;;;;13.92;57.61;101857.63;1022714;29;1572;-59
2022/01/27 07:04:37;;;;;;;;;;;;;;;13.95;57.37;101861.94;1023012;28;976;-58
2022/01/27 07:05:31;;;;;;;;;;;;;;;13.95;58.20;101862.78;1021827;29;721;-58
2022/01/27 07:06:21;;;;;;;;;;;;;;;13.98;57.32;101864.41;1022444;28;689;-58
2022/01/27 07:07:12;;;;;;;;;;;;;;;13.96;57.10;101861.84;1022783;28;844;-59
2022/01/27 07:08:03;;;;;;;;;;;;;;;13.96;57.87;101856.47;1022034;29;1793;-59
2022/01/27 07:08:53;;;;;;;;;;;;;;;13.97;57.73;101850.16;1021753;29;815;-59
2022/01/27 07:09:44;;;;;;;;;;;;;;;13.98;57.42;101843.81;1021787;29;765;-59
2022/01/27 07:10:34;;;;;;;;;;;;;;;13.99;57.72;101850.91;1021148;29;705;-59
2022/01/27 07:11:25;;;;;;;;;;;;;;;13.99;57.66;101850.91;1021618;29;866;-59
2022/01/27 07:12:15;;;;;;;;;;;;;;;14.00;57.38;101863.34;1021406;29;2073;-59
2022/01/27 07:13:05;;;;;;;;;;;;;;;14.02;57.53;101858.75;1021701;29;731;-58
2022/01/27 07:13:56;;;;;;;;;;;;;;;14.03;57.85;101856.94;1021728;29;735;-59
2022/01/27 07:14:46;;;;;;;;;;;;;;;14.05;57.61;101855.88;1017312;29;729;-58
2022/01/27 07:15:37;;;;;;;;;;;;;;;14.07;57.57;101855.78;1013508;29;888;-59
2022/01/27 07:16:28;;;;;;;;;;;;;;;14.07;57.59;101856.66;1016766;29;1006;-59
2022/01/27 07:17:20;;;;;;;;;;;;;;;14.09;57.47;101856.56;1018676;28;1902;-59
2022/01/27 07:18:10;;;;;;;;;;;;;;;14.10;57.63;101861.81;1019468;29;2279;-59
2022/01/27 07:19:01;;;;;;;;;;;;;;;14.12;57.59;101862.59;1022621;28;672;-59
2022/01/27 07:19:51;;;;;;;;;;;;;;;14.13;57.79;101861.63;1022696;28;733;-59
2022/01/27 07:20:42;;;;;;;;;;;;;;;14.13;57.76;101858.94;1024303;28;1566;-59
2022/01/27 07:21:32;;;;;;;;;;;;;;;14.13;58.02;101858.94;1022834;28;889;-59
2022/01/27 07:22:23;;;;;;;;;;;;;;;14.14;57.54;101855.31;1021728;29;712;-59
2022/01/27 07:23:13;;;;;;;;;;;;;;;14.15;57.37;101872.25;1022973;28;738;-59
2022/01/27 07:24:04;;;;;;;;;;;;;;;14.17;57.45;101860.44;1022671;28;718;-60
2022/01/27 07:24:54;;;;;;;;;;;;;;;14.21;57.24;101869.16;1022659;28;672;-60
2022/01/27 07:25:44;;;;;;;;;;;;;;;14.20;57.37;101865.63;1022855;28;927;-59
2022/01/27 07:26:35;;;;;;;;;;;;;;;14.22;57.57;101871.75;1018936;29;833;-60
2022/01/27 07:27:25;;;;;;;;;;;;;;;14.27;57.35;101871.47;1018968;28;641;-60
2022/01/27 07:28:16;;;;;;;;;;;;;;;14.26;57.61;101864.38;1022611;28;1942;-59
2022/01/27 07:29:06;;;;;;;;;;;;;;;14.27;57.25;101870.59;1021577;29;619;-59
2022/01/27 07:29:57;;;;;;;;;;;;;;;14.28;57.91;101872.34;1021634;29;852;-59
2022/01/27 07:30:47;;;;;;;;;;;;;;;14.28;57.45;101867.84;1021722;29;622;-59
2022/01/27 07:31:37;;;;;;;;;;;;;;;14.31;57.92;101858.72;1021643;29;721;-60
2022/01/27 07:32:28;;;;;;;;;;;;;;;14.33;57.36;101863.00;1021678;29;771;-59
2022/01/27 07:33:18;;;;;;;;;;;;;;;14.34;57.05;101861.19;1021443;29;1547;-60
2022/01/27 07:34:09;;;;;;;;;;;;;;;14.33;57.50;101862.19;1021205;29;1513;-60
2022/01/27 07:35:01;;;;;;;;;;;;;;;14.32;58.00;101864.00;1022019;28;1045;-59
2022/01/27 07:35:51;;;;;;;;;;;;;;;14.31;57.38;101867.63;1022157;28;733;-59
2022/01/27 07:36:41;;;;;;;;;;;;;;;14.29;58.19;101874.06;1022820;28;712;-60
2022/01/27 07:37:32;;;;;;;;;;;;;;;14.30;57.87;101860.56;1021187;29;1902;-59
2022/01/27 07:38:23;;;;;;;;;;;;;;;14.31;58.17;101866.78;1020906;29;752;-59
2022/01/27 07:39:15;;;;;;;;;;;;;;;14.32;58.05;101868.50;1022411;28;1824;-60
2022/01/27 07:40:06;;;;;;;;;;;;;;;14.35;57.95;101868.28;1019871;29;1332;-59
2022/01/27 07:40:56;;;;;;;;;;;;;;;14.39;57.90;101875.16;1021025;29;1572;-59
2022/01/27 07:41:47;;;;;;;;;;;;;;;14.40;57.23;101875.09;1022330;28;1822;-60
2022/01/27 07:42:37;;;;;;;;;;;;;;;14.40;57.88;101876.91;1022222;28;1422;-60
2022/01/27 07:43:27;;;;;;;;;;;;;;;14.40;57.21;101872.44;1020209;29;1495;-58
2022/01/27 07:44:18;;;;;;;;;;;;;;;14.42;57.61;101878.56;1018754;29;1159;-58
2022/01/27 07:45:08;;;;;;;;;;;;;;;14.39;57.28;101880.53;1018228;29;638;-59
2022/01/27 07:45:59;;;;;;;;;;;;;;;14.40;57.79;101876.91;1021811;28;1631;-60
2022/01/27 07:46:50;;;;;;;;;;;;;;;14.41;57.43;101873.28;1021274;28;1365;-59
2022/01/27 07:47:40;;;;;;;;;;;;;;;14.39;57.11;101869.81;1014228;29;1477;-59
2022/01/27 07:48:31;;;;;;;;;;;;;;;14.39;57.87;101867.13;1016474;29;1208;-58
2022/01/27 07:49:21;;;;;;;;;;;;;;;14.40;57.76;101866.16;1017165;29;1487;-59
2022/01/27 07:50:11;;;;;;;;;;;;;;;14.40;57.31;101872.44;1017198;29;1616;-60
2022/01/27 07:51:03;;;;;;;;;;;;;;;14.43;57.26;101874.06;1018070;29;1424;-60
2022/01/27 07:51:53;;;;;;;;;;;;;;;14.45;57.24;101875.69;1016406;29;1196;-59
2022/01/27 07:52:44;;;;;;;;;;;;;;;14.44;57.71;101878.47;1017773;29;1843;-59
2022/01/27 07:53:34;;;;;;;;;;;;;;;14.43;57.86;101871.38;1018827;28;1174;-59
2022/01/27 07:54:25;;;;;;;;;;;;;;;14.41;57.69;101879.50;1018186;28;1853;-58
2022/01/27 07:55:15;;;;;;;;;;;;;;;14.42;57.72;101875.88;1017889;29;1363;-59
2022/01/27 07:56:05;;;;;;;;;;;;;;;14.38;57.68;101868.09;1018164;29;1438;-60
2022/01/27 07:56:56;;;;;;;;;;;;;;;14.37;57.16;101861.00;1017838;29;1490;-59
2022/01/27 07:57:46;;;;;;;;;;;;;;;14.36;57.83;101868.19;1017454;29;1718;-60
2022/01/27 07:58:38;;;;;;;;;;;;;;;14.38;57.57;101882.34;1014883;29;787;-59
2022/01/27 07:59:28;;;;;;;;;;;;;;;14.38;57.15;101868.09;1015345;29;1820;-60
2022/01/27 08:00:17;;;;;;;;;;;;;;;14.36;57.45;101870.88;1019508;29;1352;-59
2022/01/27 08:01:08;;;;;;;;;;;;;;;14.35;57.50;101873.63;1009266;29;902;-59
2022/01/27 08:01:58;;;;;;;;;;;;;;;14.34;57.85;101880.81;1011205;29;1189;-59
2022/01/27 08:02:46;;;;;;;;;;;;;;;14.34;57.41;101871.91;1016011;29;1547;-60
2022/01/27 08:03:35;;;;;;;;;;;;;;;14.33;57.50;101876.41;1010673;29;1342;-60
2022/01/27 08:04:25;;;;;;;;;;;;;;;14.30;57.33;101876.63;1016356;29;1290;-60
2022/01/27 08:05:14;;;;;;;;;;;;;;;14.29;57.73;101869.56;1015342;29;1656;-60
2022/01/27 08:06:03;;;;;;;;;;;;;;;14.27;58.15;101876.84;1017778;29;701;-60
2022/01/27 08:06:52;;;;;;;;;;;;;;;14.25;57.55;101879.59;1013844;29;752;-60
2022/01/27 08:07:41;;;;;;;;;;;;;;;14.24;58.04;101882.38;1013755;29;1042;-60
2022/01/27 08:08:30;;;;;;;;;;;;;;;14.22;57.71;101874.44;1019878;29;1406;-60
2022/01/27 08:09:19;;;;;;;;;;;;;;;14.21;57.59;101872.72;1016263;29;1579;-59
2022/01/27 08:10:07;;;;;;;;;;;;;;;14.23;58.04;101868.13;1014030;29;1314;-60
2022/01/27 08:10:56;;;;;;;;;;;;;;;14.22;58.37;101874.44;1021670;29;743;-60
2022/01/27 08:11:45;;;;;;;;;;;;;;;14.22;57.83;101879.78;1013676;29;953;-60
2022/01/27 08:12:34;;;;;;;;;;;;;;;14.25;58.28;101874.25;1020683;29;1602;-61
2022/01/27 08:13:23;;;;;;;;;;;;;;;14.27;57.89;101873.28;1017830;29;1187;-60
2022/01/27 08:14:12;;;;;;;;;;;;;;;14.27;57.69;101875.97;1017821;29;1507;-60
2022/01/27 08:15:01;;;;;;;;;;;;;;;14.29;58.19;101869.56;1017638;29;1333;-60
2022/01/27 08:15:50;;;;;;;;;;;;;;;14.28;57.46;101878.56;1015742;29;1572;-58
2022/01/27 08:16:39;;;;;;;;;;;;;;;14.28;57.82;101872.34;1015390;29;1403;-59
2022/01/27 08:17:29;;;;;;;;;;;;;;;14.25;57.56;101868.03;1016429;29;1958;-60
2022/01/27 08:18:18;;;;;;;;;;;;;;;14.22;57.54;101869.06;1018279;29;1403;-60
2022/01/27 08:19:07;;;;;;;;;;;;;;;14.25;57.80;101878.75;1017596;29;883;-60
2022/01/27 08:19:56;;;;;;;;;;;;;;;14.21;57.43;101877.22;1013715;29;753;-60
2022/01/27 08:20:47;;;;;;;;;;;;;;;14.21;57.75;101869.16;1013564;29;710;-60
2022/01/27 08:21:35;;;;;;;;;;;;;;;14.21;57.53;101863.81;1013579;29;716;-59
2022/01/27 08:22:24;;;;;;;;;;;;;;;14.18;57.57;101862.19;1018227;29;1339;-60
2022/01/27 08:23:14;;;;;;;;;;;;;;;14.16;58.10;101864.09;1021540;29;728;-60
2022/01/27 08:24:03;;;;;;;;;;;;;;;14.15;57.50;101866.91;1020009;29;1856;-61
2022/01/27 08:24:52;;;;;;;;;;;;;;;14.14;57.57;101860.69;1017586;29;1341;-59
2022/01/27 08:25:41;;;;;;;;;;;;;;;14.14;58.40;101870.53;1017769;29;885;-56
2022/01/27 08:26:42;;;;;;;;;;;;;;;14.13;57.81;101869.69;1020628;29;1426;-60
2022/01/27 08:27:32;;;;;;;;;;;;;;;14.14;57.78;101867.84;1021548;29;897;-60
2022/01/27 08:28:31;;;;;;;;;;;;;;;14.12;57.66;101867.09;1019710;29;1498;-60
2022/01/27 08:29:26;;;;;;;;;;;;;;;14.10;58.29;101863.66;1017697;29;818;-60
2022/01/27 08:30:17;;;;;;;;;;;;;;;14.09;57.83;101869.97;1018567;29;1516;-60
2022/01/27 08:31:06;;;;;;;;;;;;;;;14.09;57.63;101862.78;1021629;29;1044;-60
2022/01/27 08:32:10;;;;;;;;;;;;;;;14.08;58.41;101866.41;1021195;29;1547;-60
2022/01/27 08:33:04;;;;;;;;;;;;;;;14.08;57.78;101860.19;1013714;29;791;-60
2022/01/27 08:33:53;;;;;;;;;;;;;;;14.08;58.38;101863.75;1013849;29;721;-60
2022/01/27 08:34:43;;;;;;;;;;;;;;;14.10;57.89;101864.50;1013741;29;867;-60
2022/01/27 08:35:33;;;;;;;;;;;;;;;14.11;58.21;101866.22;1015928;29;1588;-59
2022/01/27 08:36:22;;;;;;;;;;;;;;;14.12;57.62;101867.09;1020876;29;1398;-60
2022/01/27 08:37:11;;;;;;;;;;;;;;;14.10;57.81;101863.66;1022343;29;1875;-60
2022/01/27 08:38:00;;;;;;;;;;;;;;;14.09;57.96;101868.13;1016294;29;1702;-60
2022/01/27 08:38:50;;;;;;;;;;;;;;;14.12;57.94;101865.28;1017409;29;1588;-59
2022/01/27 08:39:39;;;;;;;;;;;;;;;14.14;58.18;101867.84;1012347;29;1579;-59
2022/01/27 08:40:28;;;;;;;;;;;;;;;14.15;58.37;101883.81;1013818;29;602;-59
2022/01/27 08:41:17;;;;;;;;;;;;;;;14.15;58.17;101857.00;1014531;29;618;-59
2022/01/27 08:42:08;;;;;;;;;;;;;;;14.17;58.00;101860.44;1015131;29;789;-58
2022/01/27 08:42:59;;;;;;;;;;;;;;;14.15;57.86;101859.69;1014892;29;946;-58
2022/01/27 08:43:53;;;;;;;;;;;;;;;14.14;58.53;101855.31;1015617;29;845;-59
2022/01/27 08:44:43;;;;;;;;;;;;;;;14.13;58.40;101853.59;1010944;29;740;-59
2022/01/27 08:45:34;;;;;;;;;;;;;;;14.13;58.58;101858.09;1014517;29;681;-58
2022/01/27 08:46:24;;;;;;;;;;;;;;;14.13;58.00;101864.31;1016173;28;1053;-58
2022/01/27 08:47:16;;;;;;;;;;;;;;;14.13;57.61;101863.44;1014957;29;890;-58
2022/01/27 08:48:06;;;;;;;;;;;;;;;14.11;57.74;101855.50;1017746;29;1839;-59
2022/01/27 08:48:57;;;;;;;;;;;;;;;14.07;58.41;101862.00;1018897;29;843;-58
2022/01/27 08:49:47;;;;;;;;;;;;;;;14.06;58.10;101868.31;1018858;29;713;-58
2022/01/27 08:50:38;;;;;;;;;;;;;;;14.05;58.33;101871.09;1018881;29;700;-59
2022/01/27 08:51:30;;;;;;;;;;;;;;;14.02;58.02;101866.78;1018934;29;1082;-58
2022/01/27 08:52:20;;;;;;;;;;;;;;;14.01;57.85;101872.25;1018751;29;1067;-60
2022/01/27 08:53:10;;;;;;;;;;;;;;;13.99;58.40;101871.47;1018787;29;720;-60
2022/01/27 08:54:01;;;;;;;;;;;;;;;13.98;57.85;101865.25;1018254;29;1871;-57
2022/01/27 08:54:51;;;;;;;;;;;;;;;13.97;58.23;101855.53;1017575;29;671;-60
2022/01/27 08:55:44;;;;;;;;;;;;;;;13.95;58.02;101854.75;1017782;29;646;-57
2022/01/27 08:56:34;;;;;;;;;;;;;;;13.94;58.10;101863.75;1014508;29;630;-59
2022/01/27 08:57:25;;;;;;;;;;;;;;;13.96;58.22;101852.94;1015355;29;1982;-59
2022/01/27 08:58:15;;;;;;;;;;;;;;;13.95;58.24;101859.25;1015673;29;634;-59
2022/01/27 08:59:06;;;;;;;;;;;;;;;13.95;57.68;101870.84;1015440;29;625;-59
2022/01/27 08:59:56;;;;;;;;;;;;;;;13.96;58.45;101864.53;1015413;29;705;-59
2022/01/27 09:00:47;;;;;;;;;;;;;;;13.94;57.56;101860.22;1015512;29;633;-59
2022/01/27 09:01:38;;;;;;;;;;;;;;;13.93;57.52;101851.31;1010896;29;692;-58
2022/01/27 09:02:28;;;;;;;;;;;;;;;13.94;58.10;101862.88;1014231;29;767;-59
2022/01/27 09:03:19;;;;;;;;;;;;;;;13.94;57.95;101862.88;1015480;29;709;-60
2022/01/27 09:04:09;;;;;;;;;;;;;;;13.94;57.83;101858.41;1014977;29;654;-60
2022/01/27 09:05:00;;;;;;;;;;;;;;;13.94;57.65;101861.06;1015386;29;618;-60
2022/01/27 09:05:50;;;;;;;;;;;;;;;13.94;57.57;101861.06;1015505;29;921;-60
2022/01/27 09:06:41;;;;;;;;;;;;;;;13.94;57.67;101853.03;1011654;29;654;-60
2022/01/27 09:07:31;;;;;;;;;;;;;;;13.93;58.06;101854.00;1014000;29;638;-60
2022/01/27 09:08:21;;;;;;;;;;;;;;;13.95;57.45;101849.41;1016146;29;653;-59
2022/01/27 09:09:12;;;;;;;;;;;;;;;13.98;57.74;101856.34;1015337;29;732;-59
2022/01/27 09:10:02;;;;;;;;;;;;;;;13.99;57.69;101858.06;1014924;29;696;-58
2022/01/27 09:10:54;;;;;;;;;;;;;;;14.00;57.93;101862.47;1015425;29;646;-60
2022/01/27 09:11:46;;;;;;;;;;;;;;;14.00;57.21;101863.34;1015871;29;684;-60
2022/01/27 09:12:37;;;;;;;;;;;;;;;14.01;57.43;101865.06;1011688;29;660;-59
2022/01/27 09:13:27;;;;;;;;;;;;;;;14.04;57.09;101864.88;1014438;29;678;-59
2022/01/27 09:14:17;;;;;;;;;;;;;;;14.04;57.69;101859.53;1015498;29;777;-59
2022/01/27 09:15:08;;;;;;;;;;;;;;;14.03;57.77;101855.13;1015344;29;697;-59
2022/01/27 09:16:00;;;;;;;;;;;;;;;14.03;57.81;101855.13;1015455;29;603;-59
2022/01/27 09:16:51;;;;;;;;;;;;;;;14.04;57.22;101854.16;1016518;28;782;-59
2022/01/27 09:17:41;;;;;;;;;;;;;;;14.05;57.66;101861.25;1016497;28;704;-59
2022/01/27 09:18:32;;;;;;;;;;;;;;;14.05;57.28;101850.53;1010211;29;942;-59
2022/01/27 09:19:25;;;;;;;;;;;;;;;14.05;56.94;101860.38;1010806;29;619;-59
2022/01/27 09:20:16;;;;;;;;;;;;;;;14.04;57.74;101856.84;1014323;29;943;-59
2022/01/27 09:21:12;;;;;;;;;;;;;;;14.02;57.53;101858.75;1015961;28;614;-59
2022/01/27 09:22:07;;;;;;;;;;;;;;;14.01;57.56;101854.34;1014831;29;646;-58
2022/01/27 09:23:00;;;;;;;;;;;;;;;14.02;57.28;101856.06;1016035;29;633;-59
2022/01/27 09:23:51;;;;;;;;;;;;;;;14.02;57.81;101855.22;1016153;29;744;-59
2022/01/27 09:24:51;;;;;;;;;;;;;;;14.02;57.83;101853.38;1015948;29;848;-59
2022/01/27 09:25:44;;;;;;;;;;;;;;;14.01;57.18;101858.84;1015954;29;843;-59
2022/01/27 09:26:42;;;;;;;;;;;;;;;13.99;57.84;101845.53;1016493;28;789;-60
2022/01/27 09:27:32;;;;;;;;;;;;;;;14.00;57.10;101849.09;1014851;29;717;-60
2022/01/27 09:28:23;;;;;;;;;;;;;;;14.01;57.20;101849.00;1016522;28;629;-59
2022/01/27 09:29:13;;;;;;;;;;;;;;;13.98;57.99;101849.19;1014753;29;666;-60
2022/01/27 09:30:03;;;;;;;;;;;;;;;13.97;57.09;101847.47;1016598;28;615;-59
2022/01/27 09:30:54;;;;;;;;;;;;;;;13.99;57.84;101853.59;1016257;28;863;-58
2022/01/27 09:31:44;;;;;;;;;;;;;;;13.98;57.35;101849.19;1016189;28;778;-60
2022/01/27 09:32:35;;;;;;;;;;;;;;;13.97;57.30;101852.84;1016562;28;701;-59
2022/01/27 09:33:25;;;;;;;;;;;;;;;13.97;57.70;101854.66;1016316;28;766;-59
2022/01/27 09:34:15;;;;;;;;;;;;;;;13.97;57.28;101852.84;1016623;28;649;-58
2022/01/27 09:35:06;;;;;;;;;;;;;;;13.99;57.42;101855.41;1016256;28;713;-59
2022/01/27 09:35:56;;;;;;;;;;;;;;;14.00;57.31;101857.97;1016634;28;673;-59
2022/01/27 09:36:47;;;;;;;;;;;;;;;14.02;57.74;101860.56;1016421;28;630;-59
2022/01/27 09:37:37;;;;;;;;;;;;;;;14.00;57.83;101854.44;1016211;28;1951;-59
2022/01/27 09:38:28;;;;;;;;;;;;;;;13.99;57.23;101850.03;1019516;28;1880;-59
2022/01/27 09:39:19;;;;;;;;;;;;;;;13.99;57.76;101864.31;1015533;28;857;-59
2022/01/27 09:40:10;;;;;;;;;;;;;;;13.97;57.79;101847.47;1015158;29;775;-59
2022/01/27 09:41:00;;;;;;;;;;;;;;;13.95;57.90;101854.75;1018717;29;634;-59
2022/01/27 09:41:51;;;;;;;;;;;;;;;13.96;57.52;101858.28;1018702;29;682;-59
2022/01/27 09:42:42;;;;;;;;;;;;;;;13.99;57.89;101860.75;1018720;29;681;-59
2022/01/27 09:43:32;;;;;;;;;;;;;;;13.99;57.54;101855.41;1018713;29;799;-59
2022/01/27 09:44:27;;;;;;;;;;;;;;;13.99;57.51;101856.25;1019895;28;693;-59
2022/01/27 09:45:17;;;;;;;;;;;;;;;13.99;57.05;101856.25;1018707;29;961;-59
2022/01/27 09:46:08;;;;;;;;;;;;;;;14.00;57.50;101854.44;1018437;29;1548;-58
2022/01/27 09:47:00;;;;;;;;;;;;;;;13.99;57.28;101860.75;1014933;29;1342;-59